sensor_id;sensor_type;location;lat;lon;timestamp;P1;durP1;ratioP1;P2;durP2;ratioP2
28483;SDS011;15704;48.834;8.736;2022-11-20T00:01:14;7.40;;;3.53;;
28483;SDS011;15704;48.834;8.736;2022-11-20T00:03:42;6.40;;;3.70;;
28483;SDS011;15704;48.834;8.736;2022-11-20T00:06:08;7.18;;;3.63;;
28483;SDS011;15704;48.834;8.736;2022-11-20T00:08:36;5.60;;;3.30;;
28483;SDS011;15704;48.834;8.736;2022-11-20T00:11:06;9.93;;;3.67;;
28483;SDS011;15704;48.834;8.736;2022-11-20T00:13:37;5.90;;;3.67;;
28483;SDS011;15704;48.834;8.736;2022-11-20T00:16:04;10.85;;;3.45;;
28483;SDS011;15704;48.834;8.736;2022-11-20T00:18:35;9.10;;;3.97;;
28483;SDS011;15704;48.834;8.736;2022-11-20T00:21:01;8.60;;;3.78;;
28483;SDS011;15704;48.834;8.736;2022-11-20T00:23:32;6.05;;;3.33;;
28483;SDS011;15704;48.834;8.736;2022-11-20T00:26:02;7.03;;;3.80;;
28483;SDS011;15704;48.834;8.736;2022-11-20T00:28:29;4.32;;;2.50;;
28483;SDS011;15704;48.834;8.736;2022-11-20T00:31:04;6.43;;;2.50;;
28483;SDS011;15704;48.834;8.736;2022-11-20T00:33:33;6.13;;;3.00;;
28483;SDS011;15704;48.834;8.736;2022-11-20T00:36:03;9.50;;;3.92;;
28483;SDS011;15704;48.834;8.736;2022-11-20T00:38:31;10.18;;;2.35;;
28483;SDS011;15704;48.834;8.736;2022-11-20T00:40:57;4.63;;;2.72;;
28483;SDS011;15704;48.834;8.736;2022-11-20T00:43:24;6.28;;;3.00;;
28483;SDS011;15704;48.834;8.736;2022-11-20T00:45:50;5.75;;;3.00;;
28483;SDS011;15704;48.834;8.736;2022-11-20T00:48:20;6.32;;;3.05;;
28483;SDS011;15704;48.834;8.736;2022-11-20T00:50:46;5.53;;;3.05;;
28483;SDS011;15704;48.834;8.736;2022-11-20T00:53:12;6.20;;;3.30;;
28483;SDS011;15704;48.834;8.736;2022-11-20T00:55:37;6.18;;;3.38;;
28483;SDS011;15704;48.834;8.736;2022-11-20T00:58:03;6.07;;;3.10;;
28483;SDS011;15704;48.834;8.736;2022-11-20T01:00:28;5.95;;;3.60;;
28483;SDS011;15704;48.834;8.736;2022-11-20T01:02:55;5.22;;;2.97;;
28483;SDS011;15704;48.834;8.736;2022-11-20T01:05:20;4.82;;;2.92;;
28483;SDS011;15704;48.834;8.736;2022-11-20T01:07:46;4.78;;;3.17;;
28483;SDS011;15704;48.834;8.736;2022-11-20T01:10:12;6.75;;;3.50;;
28483;SDS011;15704;48.834;8.736;2022-11-20T01:12:37;5.93;;;3.33;;
28483;SDS011;15704;48.834;8.736;2022-11-20T01:15:03;4.47;;;3.00;;
28483;SDS011;15704;48.834;8.736;2022-11-20T01:17:29;6.80;;;3.70;;
28483;SDS011;15704;48.834;8.736;2022-11-20T01:19:56;4.53;;;3.08;;
28483;SDS011;15704;48.834;8.736;2022-11-20T01:22:22;7.05;;;3.13;;
28483;SDS011;15704;48.834;8.736;2022-11-20T01:24:47;4.78;;;2.85;;
28483;SDS011;15704;48.834;8.736;2022-11-20T01:27:13;8.25;;;3.28;;
28483;SDS011;15704;48.834;8.736;2022-11-20T01:29:39;3.97;;;2.70;;
28483;SDS011;15704;48.834;8.736;2022-11-20T01:32:04;5.55;;;3.08;;
28483;SDS011;15704;48.834;8.736;2022-11-20T01:34:30;5.45;;;2.72;;
28483;SDS011;15704;48.834;8.736;2022-11-20T01:36:56;5.30;;;3.08;;
28483;SDS011;15704;48.834;8.736;2022-11-20T01:39:22;4.35;;;2.60;;
28483;SDS011;15704;48.834;8.736;2022-11-20T01:41:50;4.47;;;2.85;;
28483;SDS011;15704;48.834;8.736;2022-11-20T01:50:00;4.75;;;2.47;;
28483;SDS011;15704;48.834;8.736;2022-11-20T01:52:34;5.28;;;3.00;;
28483;SDS011;15704;48.834;8.736;2022-11-20T01:57:37;4.72;;;2.72;;
28483;SDS011;15704;48.834;8.736;2022-11-20T02:00:06;11.90;;;3.25;;
28483;SDS011;15704;48.834;8.736;2022-11-20T02:02:34;5.10;;;3.20;;
28483;SDS011;15704;48.834;8.736;2022-11-20T02:05:03;5.05;;;3.00;;
28483;SDS011;15704;48.834;8.736;2022-11-20T02:07:56;7.72;;;3.30;;
28483;SDS011;15704;48.834;8.736;2022-11-20T02:10:23;5.00;;;3.10;;
28483;SDS011;15704;48.834;8.736;2022-11-20T02:12:49;4.75;;;3.00;;
28483;SDS011;15704;48.834;8.736;2022-11-20T02:15:34;7.88;;;3.22;;
28483;SDS011;15704;48.834;8.736;2022-11-20T02:17:59;5.75;;;2.80;;
28483;SDS011;15704;48.834;8.736;2022-11-20T02:20:25;6.30;;;3.08;;
28483;SDS011;15704;48.834;8.736;2022-11-20T02:25:42;4.68;;;3.25;;
28483;SDS011;15704;48.834;8.736;2022-11-20T02:28:10;5.30;;;2.90;;
28483;SDS011;15704;48.834;8.736;2022-11-20T02:30:36;5.03;;;3.20;;
28483;SDS011;15704;48.834;8.736;2022-11-20T02:33:01;9.15;;;4.00;;
28483;SDS011;15704;48.834;8.736;2022-11-20T02:37:53;5.90;;;3.22;;
28483;SDS011;15704;48.834;8.736;2022-11-20T02:40:20;5.80;;;3.92;;
28483;SDS011;15704;48.834;8.736;2022-11-20T02:42:47;7.28;;;3.50;;
28483;SDS011;15704;48.834;8.736;2022-11-20T02:45:13;11.38;;;3.83;;
28483;SDS011;15704;48.834;8.736;2022-11-20T02:47:38;4.35;;;2.97;;
28483;SDS011;15704;48.834;8.736;2022-11-20T02:50:04;8.55;;;3.10;;
28483;SDS011;15704;48.834;8.736;2022-11-20T02:52:30;5.97;;;3.50;;
28483;SDS011;15704;48.834;8.736;2022-11-20T02:54:56;5.20;;;3.05;;
28483;SDS011;15704;48.834;8.736;2022-11-20T02:57:22;10.15;;;3.90;;
28483;SDS011;15704;48.834;8.736;2022-11-20T02:59:47;4.75;;;3.58;;
28483;SDS011;15704;48.834;8.736;2022-11-20T03:02:13;6.88;;;3.38;;
28483;SDS011;15704;48.834;8.736;2022-11-20T03:04:39;8.98;;;3.50;;
28483;SDS011;15704;48.834;8.736;2022-11-20T03:07:04;6.80;;;4.15;;
28483;SDS011;15704;48.834;8.736;2022-11-20T03:09:30;5.03;;;2.92;;
28483;SDS011;15704;48.834;8.736;2022-11-20T03:11:55;7.25;;;3.03;;
28483;SDS011;15704;48.834;8.736;2022-11-20T03:14:21;6.07;;;3.83;;
28483;SDS011;15704;48.834;8.736;2022-11-20T03:16:47;5.05;;;2.85;;
28483;SDS011;15704;48.834;8.736;2022-11-20T03:19:13;5.18;;;2.85;;
28483;SDS011;15704;48.834;8.736;2022-11-20T03:21:38;4.40;;;2.60;;
28483;SDS011;15704;48.834;8.736;2022-11-20T03:24:04;7.30;;;4.13;;
28483;SDS011;15704;48.834;8.736;2022-11-20T03:26:30;4.75;;;2.80;;
28483;SDS011;15704;48.834;8.736;2022-11-20T03:28:57;5.30;;;3.50;;
28483;SDS011;15704;48.834;8.736;2022-11-20T03:31:25;13.75;;;3.08;;
28483;SDS011;15704;48.834;8.736;2022-11-20T03:34:17;15.38;;;6.65;;
28483;SDS011;15704;48.834;8.736;2022-11-20T03:36:43;14.65;;;5.50;;
28483;SDS011;15704;48.834;8.736;2022-11-20T03:39:08;8.35;;;4.30;;
28483;SDS011;15704;48.834;8.736;2022-11-20T03:41:38;6.35;;;2.97;;
28483;SDS011;15704;48.834;8.736;2022-11-20T03:44:06;7.80;;;2.88;;
28483;SDS011;15704;48.834;8.736;2022-11-20T03:46:32;3.03;;;2.42;;
28483;SDS011;15704;48.834;8.736;2022-11-20T03:48:58;4.03;;;2.25;;
28483;SDS011;15704;48.834;8.736;2022-11-20T03:51:25;5.97;;;3.22;;
28483;SDS011;15704;48.834;8.736;2022-11-20T03:53:56;11.32;;;3.35;;
28483;SDS011;15704;48.834;8.736;2022-11-20T03:56:24;5.80;;;2.50;;
28483;SDS011;15704;48.834;8.736;2022-11-20T03:58:52;3.40;;;2.35;;
28483;SDS011;15704;48.834;8.736;2022-11-20T04:01:18;3.55;;;2.45;;
28483;SDS011;15704;48.834;8.736;2022-11-20T04:03:45;5.05;;;2.70;;
28483;SDS011;15704;48.834;8.736;2022-11-20T04:06:12;10.90;;;4.15;;
28483;SDS011;15704;48.834;8.736;2022-11-20T04:08:39;4.72;;;2.70;;
28483;SDS011;15704;48.834;8.736;2022-11-20T04:11:09;7.03;;;2.50;;
28483;SDS011;15704;48.834;8.736;2022-11-20T04:13:34;3.97;;;2.17;;
28483;SDS011;15704;48.834;8.736;2022-11-20T04:16:00;6.30;;;2.10;;
28483;SDS011;15704;48.834;8.736;2022-11-20T04:18:25;3.08;;;2.08;;
28483;SDS011;15704;48.834;8.736;2022-11-20T04:20:51;4.40;;;2.35;;
28483;SDS011;15704;48.834;8.736;2022-11-20T04:23:16;6.40;;;2.95;;
28483;SDS011;15704;48.834;8.736;2022-11-20T04:25:42;5.43;;;2.05;;
28483;SDS011;15704;48.834;8.736;2022-11-20T04:28:08;4.57;;;2.08;;
28483;SDS011;15704;48.834;8.736;2022-11-20T04:30:33;4.90;;;2.10;;
28483;SDS011;15704;48.834;8.736;2022-11-20T04:32:59;7.03;;;2.10;;
28483;SDS011;15704;48.834;8.736;2022-11-20T04:35:24;4.47;;;2.25;;
28483;SDS011;15704;48.834;8.736;2022-11-20T04:37:53;3.92;;;2.28;;
28483;SDS011;15704;48.834;8.736;2022-11-20T04:40:18;2.15;;;1.85;;
28483;SDS011;15704;48.834;8.736;2022-11-20T04:42:44;3.25;;;2.45;;
28483;SDS011;15704;48.834;8.736;2022-11-20T04:45:09;3.67;;;2.00;;
28483;SDS011;15704;48.834;8.736;2022-11-20T04:47:35;9.30;;;2.10;;
28483;SDS011;15704;48.834;8.736;2022-11-20T04:50:01;5.10;;;2.08;;
28483;SDS011;15704;48.834;8.736;2022-11-20T04:52:26;3.25;;;1.88;;
28483;SDS011;15704;48.834;8.736;2022-11-20T04:54:52;2.97;;;2.15;;
28483;SDS011;15704;48.834;8.736;2022-11-20T04:57:18;5.38;;;2.35;;
28483;SDS011;15704;48.834;8.736;2022-11-20T04:59:44;4.47;;;1.83;;
28483;SDS011;15704;48.834;8.736;2022-11-20T05:02:10;5.68;;;1.83;;
28483;SDS011;15704;48.834;8.736;2022-11-20T05:04:35;2.95;;;1.95;;
28483;SDS011;15704;48.834;8.736;2022-11-20T05:07:01;2.03;;;1.73;;
28483;SDS011;15704;48.834;8.736;2022-11-20T05:09:27;4.97;;;1.90;;
28483;SDS011;15704;48.834;8.736;2022-11-20T05:11:53;5.30;;;1.48;;
28483;SDS011;15704;48.834;8.736;2022-11-20T05:14:18;1.60;;;1.50;;
28483;SDS011;15704;48.834;8.736;2022-11-20T05:16:44;3.30;;;1.38;;
28483;SDS011;15704;48.834;8.736;2022-11-20T05:19:10;2.45;;;1.40;;
28483;SDS011;15704;48.834;8.736;2022-11-20T05:21:35;2.55;;;1.40;;
28483;SDS011;15704;48.834;8.736;2022-11-20T05:24:01;5.03;;;1.85;;
28483;SDS011;15704;48.834;8.736;2022-11-20T05:26:26;1.88;;;1.30;;
28483;SDS011;15704;48.834;8.736;2022-11-20T05:28:52;3.55;;;1.42;;
28483;SDS011;15704;48.834;8.736;2022-11-20T05:31:19;4.55;;;2.15;;
28483;SDS011;15704;48.834;8.736;2022-11-20T05:33:46;3.30;;;1.85;;
28483;SDS011;15704;48.834;8.736;2022-11-20T05:36:12;2.47;;;1.50;;
28483;SDS011;15704;48.834;8.736;2022-11-20T05:38:39;4.45;;;1.38;;
28483;SDS011;15704;48.834;8.736;2022-11-20T05:41:06;2.13;;;1.00;;
28483;SDS011;15704;48.834;8.736;2022-11-20T05:43:36;2.30;;;1.10;;
28483;SDS011;15704;48.834;8.736;2022-11-20T05:46:04;2.03;;;0.90;;
28483;SDS011;15704;48.834;8.736;2022-11-20T05:48:31;1.17;;;1.02;;
28483;SDS011;15704;48.834;8.736;2022-11-20T05:50:58;1.40;;;1.02;;
28483;SDS011;15704;48.834;8.736;2022-11-20T05:53:25;2.35;;;1.35;;
28483;SDS011;15704;48.834;8.736;2022-11-20T05:58:31;1.55;;;1.20;;
28483;SDS011;15704;48.834;8.736;2022-11-20T06:01:04;3.05;;;0.90;;
28483;SDS011;15704;48.834;8.736;2022-11-20T06:03:30;1.55;;;0.95;;
28483;SDS011;15704;48.834;8.736;2022-11-20T06:05:55;1.42;;;1.00;;
28483;SDS011;15704;48.834;8.736;2022-11-20T06:08:21;2.13;;;1.00;;
28483;SDS011;15704;48.834;8.736;2022-11-20T06:10:46;1.80;;;1.20;;
28483;SDS011;15704;48.834;8.736;2022-11-20T06:13:12;1.85;;;1.10;;
28483;SDS011;15704;48.834;8.736;2022-11-20T06:15:37;2.15;;;1.20;;
28483;SDS011;15704;48.834;8.736;2022-11-20T06:18:03;1.70;;;0.90;;
28483;SDS011;15704;48.834;8.736;2022-11-20T06:20:29;1.88;;;0.90;;
28483;SDS011;15704;48.834;8.736;2022-11-20T06:22:54;1.48;;;1.30;;
28483;SDS011;15704;48.834;8.736;2022-11-20T06:25:20;2.60;;;1.15;;
28483;SDS011;15704;48.834;8.736;2022-11-20T06:27:45;1.55;;;1.00;;
28483;SDS011;15704;48.834;8.736;2022-11-20T06:30:11;1.52;;;1.10;;
28483;SDS011;15704;48.834;8.736;2022-11-20T06:32:37;1.17;;;1.08;;
28483;SDS011;15704;48.834;8.736;2022-11-20T06:35:02;3.60;;;1.33;;
28483;SDS011;15704;48.834;8.736;2022-11-20T06:37:28;3.28;;;1.30;;
28483;SDS011;15704;48.834;8.736;2022-11-20T06:39:54;2.03;;;0.95;;
28483;SDS011;15704;48.834;8.736;2022-11-20T06:42:19;2.35;;;1.33;;
28483;SDS011;15704;48.834;8.736;2022-11-20T06:44:45;1.20;;;0.98;;
28483;SDS011;15704;48.834;8.736;2022-11-20T06:47:10;1.77;;;1.00;;
28483;SDS011;15704;48.834;8.736;2022-11-20T06:49:36;1.15;;;1.02;;
28483;SDS011;15704;48.834;8.736;2022-11-20T06:52:03;1.92;;;1.20;;
28483;SDS011;15704;48.834;8.736;2022-11-20T06:54:29;4.10;;;1.10;;
28483;SDS011;15704;48.834;8.736;2022-11-20T06:56:54;0.88;;;0.88;;
28483;SDS011;15704;48.834;8.736;2022-11-20T06:59:20;1.35;;;1.10;;
28483;SDS011;15704;48.834;8.736;2022-11-20T07:01:46;1.02;;;0.93;;
28483;SDS011;15704;48.834;8.736;2022-11-20T07:04:11;2.00;;;1.13;;
28483;SDS011;15704;48.834;8.736;2022-11-20T07:06:37;1.08;;;0.90;;
28483;SDS011;15704;48.834;8.736;2022-11-20T07:09:03;1.65;;;0.80;;
28483;SDS011;15704;48.834;8.736;2022-11-20T07:11:29;2.00;;;1.20;;
28483;SDS011;15704;48.834;8.736;2022-11-20T07:13:56;1.33;;;1.05;;
28483;SDS011;15704;48.834;8.736;2022-11-20T07:16:22;1.77;;;1.02;;
28483;SDS011;15704;48.834;8.736;2022-11-20T07:18:47;9.45;;;3.35;;
28483;SDS011;15704;48.834;8.736;2022-11-20T07:21:13;1.75;;;0.98;;
28483;SDS011;15704;48.834;8.736;2022-11-20T07:23:38;5.65;;;2.95;;
28483;SDS011;15704;48.834;8.736;2022-11-20T07:26:05;4.13;;;1.60;;
28483;SDS011;15704;48.834;8.736;2022-11-20T07:28:32;16.83;;;7.43;;
28483;SDS011;15704;48.834;8.736;2022-11-20T07:30:58;1.30;;;1.10;;
28483;SDS011;15704;48.834;8.736;2022-11-20T07:33:23;1.27;;;1.05;;
28483;SDS011;15704;48.834;8.736;2022-11-20T07:35:49;11.50;;;5.38;;
28483;SDS011;15704;48.834;8.736;2022-11-20T07:38:15;1.80;;;1.02;;
28483;SDS011;15704;48.834;8.736;2022-11-20T07:40:40;1.38;;;0.70;;
28483;SDS011;15704;48.834;8.736;2022-11-20T07:43:06;2.67;;;1.30;;
28483;SDS011;15704;48.834;8.736;2022-11-20T07:45:31;3.38;;;1.77;;
28483;SDS011;15704;48.834;8.736;2022-11-20T07:47:57;3.88;;;1.40;;
28483;SDS011;15704;48.834;8.736;2022-11-20T07:50:23;4.50;;;1.85;;
28483;SDS011;15704;48.834;8.736;2022-11-20T07:52:48;3.78;;;2.35;;
28483;SDS011;15704;48.834;8.736;2022-11-20T07:55:14;2.30;;;1.40;;
28483;SDS011;15704;48.834;8.736;2022-11-20T07:57:40;1.92;;;1.23;;
28483;SDS011;15704;48.834;8.736;2022-11-20T08:00:06;2.95;;;1.35;;
28483;SDS011;15704;48.834;8.736;2022-11-20T08:02:39;3.67;;;1.70;;
28483;SDS011;15704;48.834;8.736;2022-11-20T08:05:06;1.77;;;1.20;;
28483;SDS011;15704;48.834;8.736;2022-11-20T08:07:36;2.47;;;1.30;;
28483;SDS011;15704;48.834;8.736;2022-11-20T08:10:02;1.75;;;1.15;;
28483;SDS011;15704;48.834;8.736;2022-11-20T08:12:28;4.65;;;1.88;;
28483;SDS011;15704;48.834;8.736;2022-11-20T08:15:12;3.90;;;1.92;;
28483;SDS011;15704;48.834;8.736;2022-11-20T08:17:38;2.83;;;1.50;;
28483;SDS011;15704;48.834;8.736;2022-11-20T08:20:03;6.35;;;2.95;;
28483;SDS011;15704;48.834;8.736;2022-11-20T08:22:29;3.83;;;2.40;;
28483;SDS011;15704;48.834;8.736;2022-11-20T08:24:55;7.40;;;3.15;;
28483;SDS011;15704;48.834;8.736;2022-11-20T08:27:20;3.15;;;1.88;;
28483;SDS011;15704;48.834;8.736;2022-11-20T08:29:46;2.80;;;1.80;;
28483;SDS011;15704;48.834;8.736;2022-11-20T08:32:11;4.45;;;1.80;;
28483;SDS011;15704;48.834;8.736;2022-11-20T08:34:37;3.10;;;1.70;;
28483;SDS011;15704;48.834;8.736;2022-11-20T08:37:03;4.20;;;2.25;;
28483;SDS011;15704;48.834;8.736;2022-11-20T08:39:28;3.03;;;1.40;;
28483;SDS011;15704;48.834;8.736;2022-11-20T08:41:54;1.38;;;1.20;;
28483;SDS011;15704;48.834;8.736;2022-11-20T08:44:19;8.07;;;2.60;;
28483;SDS011;15704;48.834;8.736;2022-11-20T08:46:45;7.38;;;3.17;;
28483;SDS011;15704;48.834;8.736;2022-11-20T08:49:12;3.75;;;1.70;;
28483;SDS011;15704;48.834;8.736;2022-11-20T08:51:39;10.73;;;4.93;;
28483;SDS011;15704;48.834;8.736;2022-11-20T08:54:05;2.33;;;1.92;;
28483;SDS011;15704;48.834;8.736;2022-11-20T08:56:31;8.73;;;4.65;;
28483;SDS011;15704;48.834;8.736;2022-11-20T08:58:57;3.28;;;2.00;;
28483;SDS011;15704;48.834;8.736;2022-11-20T09:01:26;2.45;;;1.48;;
28483;SDS011;15704;48.834;8.736;2022-11-20T09:03:54;12.90;;;4.85;;
28483;SDS011;15704;48.834;8.736;2022-11-20T09:06:21;9.65;;;3.30;;
28483;SDS011;15704;48.834;8.736;2022-11-20T09:08:47;2.28;;;1.65;;
28483;SDS011;15704;48.834;8.736;2022-11-20T09:11:16;5.05;;;2.03;;
28483;SDS011;15704;48.834;8.736;2022-11-20T09:13:41;3.28;;;2.30;;
28483;SDS011;15704;48.834;8.736;2022-11-20T09:16:08;4.22;;;2.70;;
28483;SDS011;15704;48.834;8.736;2022-11-20T09:18:35;10.40;;;5.45;;
28483;SDS011;15704;48.834;8.736;2022-11-20T09:21:08;13.88;;;6.80;;
28483;SDS011;15704;48.834;8.736;2022-11-20T09:23:36;5.47;;;3.30;;
28483;SDS011;15704;48.834;8.736;2022-11-20T09:26:05;5.60;;;2.70;;
28483;SDS011;15704;48.834;8.736;2022-11-20T09:28:37;4.85;;;2.95;;
28483;SDS011;15704;48.834;8.736;2022-11-20T09:31:06;4.28;;;2.65;;
28483;SDS011;15704;48.834;8.736;2022-11-20T09:33:33;7.18;;;3.72;;
28483;SDS011;15704;48.834;8.736;2022-11-20T09:35:59;5.60;;;3.13;;
28483;SDS011;15704;48.834;8.736;2022-11-20T09:38:25;4.85;;;2.65;;
28483;SDS011;15704;48.834;8.736;2022-11-20T09:40:57;4.85;;;2.38;;
28483;SDS011;15704;48.834;8.736;2022-11-20T09:46:08;10.05;;;3.85;;
28483;SDS011;15704;48.834;8.736;2022-11-20T09:48:37;8.45;;;3.05;;
28483;SDS011;15704;48.834;8.736;2022-11-20T09:56:39;3.15;;;1.40;;
28483;SDS011;15704;48.834;8.736;2022-11-20T09:59:13;4.70;;;2.67;;
28483;SDS011;15704;48.834;8.736;2022-11-20T10:01:51;4.72;;;2.67;;
28483;SDS011;15704;48.834;8.736;2022-11-20T10:04:19;3.33;;;1.77;;
28483;SDS011;15704;48.834;8.736;2022-11-20T10:09:39;6.72;;;2.38;;
28483;SDS011;15704;48.834;8.736;2022-11-20T10:17:29;5.93;;;3.45;;
28483;SDS011;15704;48.834;8.736;2022-11-20T10:26:12;6.25;;;3.05;;
28483;SDS011;15704;48.834;8.736;2022-11-20T10:31:33;9.18;;;3.13;;
28483;SDS011;15704;48.834;8.736;2022-11-20T10:34:23;6.13;;;2.90;;
28483;SDS011;15704;48.834;8.736;2022-11-20T10:36:52;13.82;;;5.30;;
28483;SDS011;15704;48.834;8.736;2022-11-20T10:39:38;9.13;;;4.65;;
28483;SDS011;15704;48.834;8.736;2022-11-20T10:42:11;13.07;;;4.90;;
28483;SDS011;15704;48.834;8.736;2022-11-20T10:44:57;12.30;;;3.60;;
28483;SDS011;15704;48.834;8.736;2022-11-20T10:47:27;9.45;;;4.00;;
28483;SDS011;15704;48.834;8.736;2022-11-20T10:49:56;13.43;;;6.13;;
28483;SDS011;15704;48.834;8.736;2022-11-20T10:52:35;9.18;;;4.35;;
28483;SDS011;15704;48.834;8.736;2022-11-20T10:55:54;7.13;;;3.47;;
28483;SDS011;15704;48.834;8.736;2022-11-20T11:00:31;8.70;;;2.25;;
28483;SDS011;15704;48.834;8.736;2022-11-20T11:02:57;15.55;;;7.50;;
28483;SDS011;15704;48.834;8.736;2022-11-20T11:05:33;5.35;;;2.53;;
28483;SDS011;15704;48.834;8.736;2022-11-20T11:08:20;4.43;;;2.03;;
28483;SDS011;15704;48.834;8.736;2022-11-20T11:13:24;5.55;;;2.40;;
28483;SDS011;15704;48.834;8.736;2022-11-20T11:15:52;5.03;;;2.05;;
28483;SDS011;15704;48.834;8.736;2022-11-20T11:18:25;15.57;;;2.50;;
28483;SDS011;15704;48.834;8.736;2022-11-20T11:20:53;4.47;;;2.65;;
28483;SDS011;15704;48.834;8.736;2022-11-20T11:25:58;2.92;;;2.22;;
28483;SDS011;15704;48.834;8.736;2022-11-20T11:28:25;6.47;;;2.00;;
28483;SDS011;15704;48.834;8.736;2022-11-20T11:30:53;9.70;;;3.65;;
28483;SDS011;15704;48.834;8.736;2022-11-20T11:33:37;7.13;;;2.42;;
28483;SDS011;15704;48.834;8.736;2022-11-20T11:36:04;8.40;;;3.95;;
28483;SDS011;15704;48.834;8.736;2022-11-20T11:38:43;7.13;;;2.67;;
28483;SDS011;15704;48.834;8.736;2022-11-20T11:41:12;12.80;;;4.07;;
28483;SDS011;15704;48.834;8.736;2022-11-20T11:43:50;11.07;;;2.20;;
28483;SDS011;15704;48.834;8.736;2022-11-20T11:46:39;3.90;;;2.08;;
28483;SDS011;15704;48.834;8.736;2022-11-20T11:51:36;5.82;;;2.83;;
28483;SDS011;15704;48.834;8.736;2022-11-20T11:56:40;2.55;;;1.65;;
28483;SDS011;15704;48.834;8.736;2022-11-20T11:59:06;6.07;;;2.28;;
28483;SDS011;15704;48.834;8.736;2022-11-20T12:01:38;3.35;;;1.92;;
28483;SDS011;15704;48.834;8.736;2022-11-20T12:09:53;7.53;;;2.30;;
28483;SDS011;15704;48.834;8.736;2022-11-20T12:12:28;3.38;;;2.47;;
28483;SDS011;15704;48.834;8.736;2022-11-20T12:15:02;12.75;;;3.58;;
28483;SDS011;15704;48.834;8.736;2022-11-20T12:17:29;14.88;;;4.32;;
28483;SDS011;15704;48.834;8.736;2022-11-20T12:19:54;3.95;;;2.17;;
28483;SDS011;15704;48.834;8.736;2022-11-20T12:36:14;4.28;;;1.38;;
28483;SDS011;15704;48.834;8.736;2022-11-20T12:55:53;13.88;;;5.63;;
28483;SDS011;15704;48.834;8.736;2022-11-20T13:01:24;4.85;;;1.92;;
28483;SDS011;15704;48.834;8.736;2022-11-20T13:04:24;4.15;;;2.05;;
28483;SDS011;15704;48.834;8.736;2022-11-20T13:07:07;4.25;;;1.70;;
28483;SDS011;15704;48.834;8.736;2022-11-20T13:09:38;2.83;;;1.40;;
28483;SDS011;15704;48.834;8.736;2022-11-20T13:20:06;5.28;;;2.85;;
28483;SDS011;15704;48.834;8.736;2022-11-20T13:25:21;4.18;;;1.90;;
28483;SDS011;15704;48.834;8.736;2022-11-20T13:28:26;2.40;;;1.38;;
28483;SDS011;15704;48.834;8.736;2022-11-20T13:30:55;5.30;;;1.40;;
28483;SDS011;15704;48.834;8.736;2022-11-20T13:36:05;4.93;;;1.60;;
28483;SDS011;15704;48.834;8.736;2022-11-20T13:38:48;7.05;;;1.50;;
28483;SDS011;15704;48.834;8.736;2022-11-20T13:46:38;2.55;;;1.60;;
28483;SDS011;15704;48.834;8.736;2022-11-20T13:49:08;7.18;;;3.15;;
28483;SDS011;15704;48.834;8.736;2022-11-20T13:51:51;5.22;;;2.45;;
28483;SDS011;15704;48.834;8.736;2022-11-20T14:00:24;4.05;;;2.20;;
28483;SDS011;15704;48.834;8.736;2022-11-20T14:05:40;6.32;;;2.35;;
28483;SDS011;15704;48.834;8.736;2022-11-20T14:08:18;4.82;;;2.10;;
28483;SDS011;15704;48.834;8.736;2022-11-20T14:11:05;4.65;;;2.40;;
28483;SDS011;15704;48.834;8.736;2022-11-20T14:13:39;6.15;;;1.23;;
28483;SDS011;15704;48.834;8.736;2022-11-20T14:16:18;7.20;;;2.35;;
28483;SDS011;15704;48.834;8.736;2022-11-20T14:18:45;4.80;;;2.65;;
28483;SDS011;15704;48.834;8.736;2022-11-20T14:21:10;3.50;;;1.75;;
28483;SDS011;15704;48.834;8.736;2022-11-20T14:23:36;13.32;;;5.95;;
28483;SDS011;15704;48.834;8.736;2022-11-20T14:26:03;17.70;;;7.95;;
28483;SDS011;15704;48.834;8.736;2022-11-20T14:28:29;7.20;;;3.38;;
28483;SDS011;15704;48.834;8.736;2022-11-20T14:30:56;10.52;;;5.75;;
28483;SDS011;15704;48.834;8.736;2022-11-20T14:33:22;12.13;;;3.78;;
28483;SDS011;15704;48.834;8.736;2022-11-20T14:35:54;19.73;;;9.93;;
28483;SDS011;15704;48.834;8.736;2022-11-20T14:38:23;8.38;;;4.00;;
28483;SDS011;15704;48.834;8.736;2022-11-20T14:40:50;2.58;;;1.60;;
28483;SDS011;15704;48.834;8.736;2022-11-20T14:45:43;4.15;;;2.47;;
28483;SDS011;15704;48.834;8.736;2022-11-20T14:48:11;11.20;;;3.72;;
28483;SDS011;15704;48.834;8.736;2022-11-20T14:50:37;8.63;;;3.70;;
28483;SDS011;15704;48.834;8.736;2022-11-20T14:53:04;29.48;;;10.82;;
28483;SDS011;15704;48.834;8.736;2022-11-20T14:57:58;14.57;;;5.90;;
28483;SDS011;15704;48.834;8.736;2022-11-20T15:00:25;37.10;;;16.45;;
28483;SDS011;15704;48.834;8.736;2022-11-20T15:02:52;48.33;;;19.98;;
28483;SDS011;15704;48.834;8.736;2022-11-20T15:05:19;59.08;;;19.63;;
28483;SDS011;15704;48.834;8.736;2022-11-20T15:08:10;58.37;;;23.23;;
28483;SDS011;15704;48.834;8.736;2022-11-20T15:10:35;48.38;;;15.88;;
28483;SDS011;15704;48.834;8.736;2022-11-20T15:13:04;59.45;;;18.48;;
28483;SDS011;15704;48.834;8.736;2022-11-20T15:15:36;51.40;;;16.33;;
28483;SDS011;15704;48.834;8.736;2022-11-20T15:18:44;74.95;;;30.20;;
28483;SDS011;15704;48.834;8.736;2022-11-20T15:21:08;102.30;;;34.30;;
28483;SDS011;15704;48.834;8.736;2022-11-20T15:23:36;36.70;;;15.50;;
28483;SDS011;15704;48.834;8.736;2022-11-20T15:26:04;20.77;;;11.30;;
28483;SDS011;15704;48.834;8.736;2022-11-20T15:28:31;13.43;;;5.90;;
28483;SDS011;15704;48.834;8.736;2022-11-20T15:31:14;11.80;;;4.93;;
28483;SDS011;15704;48.834;8.736;2022-11-20T15:33:41;8.63;;;3.20;;
28483;SDS011;15704;48.834;8.736;2022-11-20T15:36:07;12.32;;;4.07;;
28483;SDS011;15704;48.834;8.736;2022-11-20T15:38:34;9.65;;;3.75;;
28483;SDS011;15704;48.834;8.736;2022-11-20T15:40:59;18.92;;;10.18;;
28483;SDS011;15704;48.834;8.736;2022-11-20T15:43:25;19.88;;;8.13;;
28483;SDS011;15704;48.834;8.736;2022-11-20T15:45:51;14.63;;;5.80;;
28483;SDS011;15704;48.834;8.736;2022-11-20T15:48:29;45.50;;;18.48;;
28483;SDS011;15704;48.834;8.736;2022-11-20T15:51:11;20.27;;;9.43;;
28483;SDS011;15704;48.834;8.736;2022-11-20T15:53:45;10.65;;;5.85;;
28483;SDS011;15704;48.834;8.736;2022-11-20T15:56:11;10.57;;;5.53;;
28483;SDS011;15704;48.834;8.736;2022-11-20T15:58:38;11.52;;;5.18;;
28483;SDS011;15704;48.834;8.736;2022-11-20T16:01:04;11.68;;;4.65;;
28483;SDS011;15704;48.834;8.736;2022-11-20T16:03:29;15.02;;;8.15;;
28483;SDS011;15704;48.834;8.736;2022-11-20T16:05:55;14.98;;;7.65;;
28483;SDS011;15704;48.834;8.736;2022-11-20T16:08:20;13.93;;;7.07;;
28483;SDS011;15704;48.834;8.736;2022-11-20T16:10:46;5.07;;;2.95;;
28483;SDS011;15704;48.834;8.736;2022-11-20T16:13:13;9.32;;;4.80;;
28483;SDS011;15704;48.834;8.736;2022-11-20T16:15:59;8.52;;;3.17;;
28483;SDS011;15704;48.834;8.736;2022-11-20T16:18:29;15.15;;;3.78;;
28483;SDS011;15704;48.834;8.736;2022-11-20T16:20:55;7.15;;;3.10;;
28483;SDS011;15704;48.834;8.736;2022-11-20T16:23:21;6.97;;;3.55;;
28483;SDS011;15704;48.834;8.736;2022-11-20T16:25:47;6.82;;;2.72;;
28483;SDS011;15704;48.834;8.736;2022-11-20T16:28:13;3.67;;;2.53;;
28483;SDS011;15704;48.834;8.736;2022-11-20T16:30:39;7.57;;;3.45;;
28483;SDS011;15704;48.834;8.736;2022-11-20T16:33:09;6.13;;;3.15;;
28483;SDS011;15704;48.834;8.736;2022-11-20T16:35:39;8.35;;;3.03;;
28483;SDS011;15704;48.834;8.736;2022-11-20T16:38:05;4.53;;;3.00;;
28483;SDS011;15704;48.834;8.736;2022-11-20T16:40:30;2.83;;;1.70;;
28483;SDS011;15704;48.834;8.736;2022-11-20T16:42:56;5.47;;;2.90;;
28483;SDS011;15704;48.834;8.736;2022-11-20T16:45:22;3.17;;;1.83;;
28483;SDS011;15704;48.834;8.736;2022-11-20T16:47:48;6.88;;;1.58;;
28483;SDS011;15704;48.834;8.736;2022-11-20T16:50:14;3.20;;;1.38;;
28483;SDS011;15704;48.834;8.736;2022-11-20T16:52:39;3.00;;;1.63;;
28483;SDS011;15704;48.834;8.736;2022-11-20T16:55:05;5.43;;;1.40;;
28483;SDS011;15704;48.834;8.736;2022-11-20T16:57:31;8.75;;;2.97;;
28483;SDS011;15704;48.834;8.736;2022-11-20T17:00:02;54.47;;;18.85;;